createdAt,value
2022-09-27T00:00:39.134Z,0.85
2022-09-27T00:03:06.378Z,0.40
2022-09-27T00:05:33.595Z,0.50
2022-09-27T00:08:01.295Z,0.73
2022-09-27T00:10:29.057Z,0.67
2022-09-27T00:12:56.328Z,0.68
2022-09-27T00:15:23.707Z,0.70
2022-09-27T00:17:53.697Z,0.70
2022-09-27T00:20:21.156Z,0.70
2022-09-27T00:22:49.207Z,0.60
2022-09-27T00:25:18.302Z,0.38
2022-09-27T00:27:45.455Z,0.80
2022-09-27T00:30:13.506Z,0.60
2022-09-27T00:32:40.554Z,0.80
2022-09-27T00:35:08.418Z,0.53
2022-09-27T00:37:35.627Z,0.60
2022-09-27T00:40:02.964Z,0.50
2022-09-27T00:42:30.024Z,0.68
2022-09-27T00:45:04.065Z,0.63
2022-09-27T00:47:40.206Z,0.40
2022-09-27T00:50:12.984Z,1.33
2022-09-27T00:52:44.281Z,0.50
2022-09-27T00:55:14.876Z,0.50
2022-09-27T00:57:43.727Z,0.70
2022-09-27T01:00:13.595Z,0.63
2022-09-27T01:02:44.244Z,0.88
2022-09-27T01:05:12.861Z,0.60
2022-09-27T01:07:39.891Z,0.68
2022-09-27T01:10:07.478Z,0.40
2022-09-27T01:13:00.489Z,0.40
2022-09-27T01:15:40.402Z,0.40
2022-09-27T01:18:32.449Z,0.70
2022-09-27T01:21:23.496Z,0.50
2022-09-27T01:24:17.150Z,0.60
2022-09-27T01:27:17.790Z,0.67
2022-09-27T01:30:17.816Z,0.40
2022-09-27T01:33:09.011Z,0.60
2022-09-27T01:35:55.074Z,0.60
2022-09-27T01:38:34.382Z,0.65
2022-09-27T01:41:05.312Z,0.50
2022-09-27T01:43:48.483Z,0.52
2022-09-27T01:46:26.266Z,0.85
2022-09-27T01:48:55.250Z,0.73
2022-09-27T01:51:30.245Z,0.52
2022-09-27T01:54:02.587Z,0.37
2022-09-27T01:56:36.136Z,0.77
2022-09-27T01:59:11.307Z,0.63
2022-09-27T02:01:39.351Z,0.80
2022-09-27T02:04:10.466Z,0.80
2022-09-27T02:06:44.061Z,0.60
2022-09-27T02:09:17.836Z,0.47
2022-09-27T02:11:56.431Z,0.57
2022-09-27T02:14:40.106Z,0.80
2022-09-27T02:17:20.493Z,0.70
2022-09-27T02:20:08.381Z,0.50
2022-09-27T02:22:39.019Z,0.60
2022-09-27T02:25:08.900Z,0.80
2022-09-27T02:27:41.619Z,0.70
2022-09-27T02:30:12.072Z,0.65
2022-09-27T02:32:39.840Z,0.60
2022-09-27T02:35:16.905Z,0.80
2022-09-27T02:37:44.117Z,0.80
2022-09-27T02:40:11.485Z,0.60
2022-09-27T02:42:38.629Z,0.45
2022-09-27T02:45:06.984Z,0.70
2022-09-27T02:47:58.122Z,0.60
2022-09-27T02:50:49.179Z,0.70
2022-09-27T02:53:27.124Z,0.70
2022-09-27T02:56:27.303Z,0.60
2022-09-27T02:59:19.129Z,0.67
2022-09-27T03:02:04.354Z,0.82
2022-09-27T03:04:44.731Z,0.90
2022-09-27T03:07:13.164Z,0.80
2022-09-27T03:09:46.245Z,0.80
2022-09-27T03:12:14.043Z,0.50
2022-09-27T03:14:41.120Z,0.57
2022-09-27T03:17:08.266Z,0.52
2022-09-27T03:19:35.371Z,0.60
2022-09-27T03:22:02.520Z,0.55
2022-09-27T03:24:29.535Z,0.90
2022-09-27T03:26:56.596Z,0.52
2022-09-27T03:29:23.855Z,1.10
2022-09-27T03:31:51.128Z,0.70
2022-09-27T03:34:18.231Z,0.95
2022-09-27T03:36:45.421Z,0.87
2022-09-27T03:39:12.527Z,0.75
2022-09-27T03:41:39.704Z,0.90
2022-09-27T03:44:06.884Z,0.90
2022-09-27T03:46:34.204Z,1.17
2022-09-27T03:49:01.292Z,0.87
2022-09-27T03:51:28.352Z,0.77
2022-09-27T03:53:55.428Z,1.10
2022-09-27T03:56:22.782Z,0.85
2022-09-27T03:58:49.801Z,1.20
2022-09-27T04:01:16.905Z,1.00
2022-09-27T04:03:44.205Z,0.95
2022-09-27T04:06:11.332Z,0.98
2022-09-27T04:08:38.543Z,0.90
2022-09-27T04:11:05.653Z,0.95
2022-09-27T04:13:32.701Z,0.97
2022-09-27T04:15:59.743Z,0.98
2022-09-27T04:18:26.799Z,0.93
2022-09-27T04:20:54.029Z,1.60
2022-09-27T04:23:21.048Z,1.85
2022-09-27T04:25:48.110Z,1.63
2022-09-27T04:28:15.790Z,1.70
2022-09-27T04:30:42.876Z,1.50
2022-09-27T04:33:09.993Z,1.60
2022-09-27T04:35:55.731Z,1.40
2022-09-27T04:38:24.006Z,1.30
2022-09-27T04:40:51.520Z,1.65
2022-09-27T04:43:18.770Z,1.30
2022-09-27T04:45:45.927Z,1.30
2022-09-27T04:48:13.001Z,1.25
2022-09-27T04:50:41.202Z,1.53
2022-09-27T04:53:08.607Z,1.90
2022-09-27T04:55:35.683Z,2.20
2022-09-27T04:58:02.796Z,1.58
2022-09-27T05:00:30.180Z,1.30
2022-09-27T05:02:57.243Z,1.57
2022-09-27T05:05:24.800Z,1.40
2022-09-27T05:07:52.031Z,1.33
2022-09-27T05:10:19.078Z,1.73
2022-09-27T05:12:46.137Z,1.77
2022-09-27T05:15:13.181Z,1.10
2022-09-27T05:17:40.214Z,1.33
2022-09-27T05:20:07.490Z,1.30
2022-09-27T05:22:34.536Z,1.35
2022-09-27T05:25:01.605Z,1.60
2022-09-27T05:27:28.693Z,1.03
2022-09-27T05:29:57.076Z,1.00
2022-09-27T05:32:24.145Z,1.20
2022-09-27T05:34:53.559Z,1.00
2022-09-27T05:37:20.645Z,0.75
2022-09-27T05:39:48.661Z,1.10
2022-09-27T05:42:16.104Z,1.02
2022-09-27T05:44:48.410Z,1.30
2022-09-27T05:47:15.977Z,1.27
2022-09-27T05:49:43.146Z,1.10
2022-09-27T05:52:14.942Z,0.83
2022-09-27T05:54:43.837Z,1.00
2022-09-27T05:57:11.098Z,1.30
2022-09-27T05:59:38.145Z,0.90
2022-09-27T06:02:05.307Z,1.10
2022-09-27T06:04:32.459Z,0.80
2022-09-27T06:06:59.603Z,1.00
2022-09-27T06:09:28.213Z,0.63
2022-09-27T06:11:55.420Z,0.60
2022-09-27T06:14:22.454Z,0.68
2022-09-27T06:16:49.569Z,0.60
2022-09-27T06:19:17.220Z,0.47
2022-09-27T06:21:44.336Z,0.73
2022-09-27T06:24:12.522Z,0.57
2022-09-27T06:26:39.663Z,0.40
2022-09-27T06:29:07.824Z,0.60
2022-09-27T06:31:34.974Z,0.57
2022-09-27T06:34:02.033Z,0.57
2022-09-27T06:36:29.086Z,0.60
2022-09-27T06:38:56.291Z,0.32
2022-09-27T06:41:23.349Z,0.60
2022-09-27T06:43:50.457Z,0.30
2022-09-27T06:46:17.547Z,0.40
2022-09-27T06:48:44.589Z,0.30
2022-09-27T06:51:11.690Z,0.52
2022-09-27T06:53:38.735Z,0.30
2022-09-27T06:56:05.955Z,0.40
2022-09-27T06:58:51.737Z,0.20
2022-09-27T07:01:18.944Z,0.30
2022-09-27T07:03:50.109Z,0.30
2022-09-27T07:06:21.626Z,0.40
2022-09-27T07:08:52.840Z,0.30
2022-09-27T07:11:20.513Z,0.40
2022-09-27T07:13:47.652Z,0.40
2022-09-27T07:16:15.078Z,0.22
2022-09-27T07:18:42.556Z,0.30
2022-09-27T07:21:10.429Z,0.30
2022-09-27T07:23:37.477Z,0.38
2022-09-27T07:26:05.112Z,0.40
2022-09-27T07:28:33.014Z,0.50
2022-09-27T07:31:00.628Z,0.40
2022-09-27T07:33:27.919Z,0.30
2022-09-27T07:35:54.957Z,0.30
2022-09-27T07:38:22.312Z,0.22
2022-09-27T07:40:49.559Z,0.20
2022-09-27T07:43:17.724Z,0.20
2022-09-27T07:45:45.076Z,0.25
2022-09-27T07:48:14.782Z,0.40
2022-09-27T07:50:42.284Z,0.20
2022-09-27T07:53:12.729Z,0.52
2022-09-27T07:55:40.444Z,0.40
2022-09-27T07:58:09.971Z,0.22
2022-09-27T08:00:37.815Z,0.30
2022-09-27T08:03:06.951Z,0.20
2022-09-27T08:05:35.901Z,0.28
2022-09-27T08:08:03.975Z,0.10
2022-09-27T08:10:32.552Z,0.25
2022-09-27T08:13:03.709Z,0.20
2022-09-27T08:15:36.006Z,0.20
2022-09-27T08:18:03.043Z,0.40
2022-09-27T08:20:30.218Z,0.30
2022-09-27T08:22:57.543Z,0.20
2022-09-27T08:25:24.628Z,0.20
2022-09-27T08:27:56.915Z,0.13
2022-09-27T08:30:25.159Z,0.30
2022-09-27T08:32:56.406Z,0.40
2022-09-27T08:35:23.499Z,0.30
2022-09-27T08:37:59.594Z,1.35
2022-09-27T08:40:38.333Z,0.40
2022-09-27T08:43:41.771Z,0.40
2022-09-27T08:46:32.035Z,0.20
2022-09-27T08:49:05.951Z,0.30
2022-09-27T08:51:34.155Z,0.10
2022-09-27T08:54:08.504Z,0.20
2022-09-27T08:56:36.302Z,0.30
2022-09-27T08:59:14.659Z,0.33
2022-09-27T09:01:42.158Z,0.20
2022-09-27T09:04:11.009Z,0.20
2022-09-27T09:06:43.183Z,0.20
2022-09-27T09:09:28.715Z,0.20
2022-09-27T09:12:47.150Z,0.30
2022-09-27T09:15:33.600Z,0.20
2022-09-27T09:18:25.524Z,0.50
2022-09-27T09:21:00.934Z,0.20
2022-09-27T09:23:38.819Z,0.22
2022-09-27T09:26:09.813Z,0.20
2022-09-27T09:29:01.021Z,0.20
2022-09-27T09:31:37.602Z,0.50
2022-09-27T09:34:12.460Z,0.30
2022-09-27T09:36:46.745Z,0.38
2022-09-27T09:39:24.473Z,0.20
2022-09-27T09:42:11.594Z,0.10
2022-09-27T09:44:54.218Z,0.20
2022-09-27T09:47:30.082Z,0.30
2022-09-27T09:50:01.448Z,0.30
2022-09-27T09:52:40.236Z,0.50
2022-09-27T09:55:18.703Z,0.17
2022-09-27T09:58:01.312Z,0.30
2022-09-27T10:00:28.349Z,0.20
2022-09-27T10:02:58.458Z,0.17
2022-09-27T10:05:26.618Z,0.23
2022-09-27T10:07:57.114Z,0.77
2022-09-27T10:10:24.200Z,0.30
2022-09-27T10:12:51.308Z,0.57
2022-09-27T10:15:26.828Z,1.60
2022-09-27T10:17:56.962Z,0.40
2022-09-27T10:20:35.470Z,0.30
2022-09-27T10:23:17.503Z,0.32
2022-09-27T10:25:50.428Z,0.20
2022-09-27T10:28:37.241Z,0.32
2022-09-27T10:31:07.106Z,0.20
2022-09-27T10:33:38.043Z,0.20
2022-09-27T10:36:23.062Z,0.20
2022-09-27T10:38:55.299Z,0.20
2022-09-27T10:41:27.663Z,0.20
2022-09-27T10:43:54.816Z,0.20
2022-09-27T10:46:26.717Z,0.30
2022-09-27T10:49:42.107Z,0.30
2022-09-27T10:52:16.658Z,0.20
2022-09-27T10:54:56.836Z,0.30
2022-09-27T10:57:26.052Z,1.83
2022-09-27T10:59:56.423Z,0.60
2022-09-27T11:02:29.919Z,0.43
2022-09-27T11:05:15.319Z,0.32
2022-09-27T11:08:18.295Z,0.43
2022-09-27T11:11:00.737Z,0.20
2022-09-27T11:13:32.808Z,0.40
2022-09-27T11:16:22.481Z,0.10
2022-09-27T11:19:00.422Z,0.20
2022-09-27T11:21:47.624Z,0.32
2022-09-27T11:25:06.234Z,0.13
2022-09-27T11:27:57.610Z,0.13
2022-09-27T11:30:24.989Z,0.15
2022-09-27T11:33:26.985Z,0.20
2022-09-27T11:36:04.620Z,0.20
2022-09-27T11:38:53.459Z,0.20
2022-09-27T11:41:31.824Z,0.20
2022-09-27T11:44:41.045Z,0.20
2022-09-27T11:47:19.979Z,0.17
2022-09-27T11:50:19.080Z,0.30
2022-09-27T11:52:50.029Z,0.20
2022-09-27T11:56:01.496Z,0.20
2022-09-27T11:58:36.647Z,0.20
2022-09-27T12:01:16.504Z,0.20
2022-09-27T12:03:51.993Z,0.30
2022-09-27T12:06:28.437Z,0.30
2022-09-27T12:09:11.492Z,0.22
2022-09-27T12:11:44.703Z,0.20
2022-09-27T12:14:19.105Z,0.40
2022-09-27T12:16:47.210Z,0.20
2022-09-27T12:19:30.756Z,0.33
2022-09-27T12:22:00.876Z,0.20
2022-09-27T12:24:28.466Z,0.25
2022-09-27T12:26:59.565Z,0.20
2022-09-27T12:29:34.006Z,0.20
2022-09-27T12:32:26.990Z,0.20
2022-09-27T12:35:07.018Z,0.30
2022-09-27T12:37:38.264Z,0.30
2022-09-27T12:40:31.593Z,0.20
2022-09-27T12:43:18.321Z,0.17
2022-09-27T12:46:10.116Z,0.30
2022-09-27T12:48:48.880Z,0.22
2022-09-27T12:51:17.781Z,0.40
2022-09-27T12:53:54.512Z,0.30
2022-09-27T12:56:35.585Z,0.43
2022-09-27T12:59:17.490Z,0.37
2022-09-27T13:01:55.298Z,0.20
2022-09-27T13:04:34.023Z,0.32
2022-09-27T13:07:39.260Z,0.30
2022-09-27T13:10:26.239Z,0.38
2022-09-27T13:12:54.684Z,0.40
2022-09-27T13:15:31.720Z,0.22
2022-09-27T13:18:01.780Z,0.40
2022-09-27T13:20:34.957Z,0.30
2022-09-27T13:23:03.096Z,0.55
2022-09-27T13:25:55.795Z,0.43
2022-09-27T13:28:32.485Z,0.22
2022-09-27T13:31:01.838Z,0.40
2022-09-27T13:33:44.449Z,0.47
2022-09-27T13:36:17.520Z,0.60
2022-09-27T13:39:01.418Z,0.40
2022-09-27T13:41:31.578Z,0.30
2022-09-27T13:44:13.933Z,0.32
2022-09-27T13:46:53.317Z,0.30
2022-09-27T13:49:42.083Z,0.60
2022-09-27T13:52:33.784Z,0.53
2022-09-27T13:55:03.481Z,0.28
2022-09-27T13:57:54.090Z,0.40
2022-09-27T14:00:23.326Z,0.30
2022-09-27T14:02:59.971Z,0.50
2022-09-27T14:05:56.137Z,0.50
2022-09-27T14:08:29.786Z,0.50
2022-09-27T14:10:57.581Z,0.57
2022-09-27T14:13:25.709Z,0.50
2022-09-27T14:15:54.712Z,0.70
2022-09-27T14:18:22.585Z,0.43
2022-09-27T14:20:53.040Z,1.17
2022-09-27T14:23:25.747Z,2.05
2022-09-27T14:25:54.893Z,1.15
2022-09-27T14:28:28.213Z,0.90
2022-09-27T14:31:14.583Z,0.70
2022-09-27T14:33:41.693Z,0.70
2022-09-27T14:36:46.251Z,0.90
2022-09-27T14:39:31.256Z,0.90
2022-09-27T14:41:59.651Z,0.65
2022-09-27T14:44:28.458Z,0.80
2022-09-27T14:47:18.388Z,0.90
2022-09-27T14:49:53.782Z,0.90
2022-09-27T14:52:27.728Z,0.73
2022-09-27T14:55:21.725Z,0.70
2022-09-27T14:58:29.478Z,0.70
2022-09-27T15:00:59.778Z,1.40
2022-09-27T15:03:36.477Z,0.88
2022-09-27T15:06:05.698Z,0.90
2022-09-27T15:08:35.976Z,0.80
2022-09-27T15:11:07.545Z,1.10
2022-09-27T15:13:36.794Z,0.52
2022-09-27T15:16:17.178Z,1.00
2022-09-27T15:18:50.787Z,0.50
2022-09-27T15:21:34.371Z,0.70
2022-09-27T15:24:02.911Z,0.53
2022-09-27T15:26:44.640Z,0.77
2022-09-27T15:29:29.896Z,0.82
2022-09-27T15:32:02.652Z,0.90
2022-09-27T15:34:30.065Z,0.80
2022-09-27T15:37:00.469Z,0.80
2022-09-27T15:39:38.141Z,0.60
2022-09-27T15:42:13.886Z,0.70
2022-09-27T15:44:47.107Z,0.50
2022-09-27T15:47:32.668Z,0.95
2022-09-27T15:50:20.568Z,0.40
2022-09-27T15:52:51.166Z,0.50
2022-09-27T15:55:20.458Z,0.70
2022-09-27T15:58:20.343Z,0.60
2022-09-27T16:00:58.680Z,0.80
2022-09-27T16:03:26.958Z,1.10
2022-09-27T16:05:56.373Z,0.90
2022-09-27T16:08:24.422Z,1.20
2022-09-27T16:10:53.583Z,0.70
2022-09-27T16:13:20.932Z,0.90
2022-09-27T16:15:48.459Z,0.90
2022-09-27T16:18:15.526Z,1.33
2022-09-27T16:20:43.427Z,1.00
2022-09-27T16:23:10.628Z,0.70
2022-09-27T16:25:37.676Z,0.70
2022-09-27T16:28:05.903Z,0.80
2022-09-27T16:30:33.245Z,0.80
2022-09-27T16:33:00.323Z,0.95
2022-09-27T16:35:28.459Z,1.00
2022-09-27T16:37:55.564Z,1.05
2022-09-27T16:40:23.365Z,1.00
2022-09-27T16:42:50.477Z,0.80
2022-09-27T16:45:19.595Z,1.08
2022-09-27T16:47:47.505Z,1.05
2022-09-27T16:50:33.711Z,1.50
2022-09-27T16:53:01.116Z,0.80
2022-09-27T16:55:29.298Z,0.90
2022-09-27T16:57:58.671Z,0.90
2022-09-27T17:00:26.577Z,1.13
2022-09-27T17:02:54.585Z,0.60
2022-09-27T17:05:23.017Z,0.60
2022-09-27T17:07:51.936Z,0.90
2022-09-27T17:10:20.267Z,0.70
2022-09-27T17:12:48.162Z,1.83
2022-09-27T17:15:16.605Z,1.58
2022-09-27T17:17:45.213Z,0.63
2022-09-27T17:20:12.700Z,0.45
2022-09-27T17:22:39.733Z,0.60
2022-09-27T17:25:07.128Z,0.45
2022-09-27T17:27:34.233Z,0.40
2022-09-27T17:30:01.340Z,0.47
2022-09-27T17:32:29.024Z,0.30
2022-09-27T17:34:57.341Z,0.50
2022-09-27T17:37:26.585Z,0.38
2022-09-27T17:39:53.664Z,0.40
2022-09-27T17:42:21.008Z,0.40
2022-09-27T17:44:48.620Z,0.43
2022-09-27T17:47:34.148Z,1.17
2022-09-27T17:50:19.881Z,1.00
2022-09-27T17:52:46.918Z,0.63
2022-09-27T17:55:14.881Z,0.63
2022-09-27T17:57:41.973Z,0.40
2022-09-27T18:00:09.585Z,0.40
2022-09-27T18:02:36.831Z,0.40
2022-09-27T18:05:05.302Z,0.57
2022-09-27T18:07:33.273Z,0.40
2022-09-27T18:10:00.349Z,0.70
2022-09-27T18:12:35.655Z,0.60
2022-09-27T18:15:03.244Z,0.65
2022-09-27T18:17:30.670Z,0.50
2022-09-27T18:20:00.017Z,0.40
2022-09-27T18:22:30.998Z,0.70
2022-09-27T18:24:58.043Z,1.10
2022-09-27T18:27:25.104Z,1.10
2022-09-27T18:29:52.735Z,1.15
2022-09-27T18:32:19.779Z,1.00
2022-09-27T18:34:46.829Z,1.20
2022-09-27T18:37:13.874Z,1.27
2022-09-27T18:39:40.995Z,1.35
2022-09-27T18:42:09.000Z,1.38
2022-09-27T18:44:36.398Z,1.37
2022-09-27T18:47:03.541Z,1.42
2022-09-27T18:49:33.787Z,1.50
2022-09-27T18:52:02.832Z,2.08
2022-09-27T18:54:29.905Z,1.70
2022-09-27T18:56:56.958Z,1.70
2022-09-27T18:59:24.150Z,2.35
2022-09-27T19:01:51.833Z,1.60
2022-09-27T19:04:24.899Z,1.02
2022-09-27T19:06:53.581Z,1.58
2022-09-27T19:09:20.838Z,2.10
2022-09-27T19:11:47.883Z,1.67
2022-09-27T19:14:19.968Z,1.80
2022-09-27T19:16:48.340Z,1.65
2022-09-27T19:19:16.721Z,1.98
2022-09-27T19:21:44.709Z,1.90
2022-09-27T19:24:12.152Z,1.95
2022-09-27T19:26:39.295Z,2.22
2022-09-27T19:29:06.572Z,1.75
2022-09-27T19:31:35.595Z,1.80
2022-09-27T19:34:03.094Z,2.10
2022-09-27T19:36:30.212Z,1.25
2022-09-27T19:38:58.873Z,1.60
2022-09-27T19:41:26.804Z,1.27
2022-09-27T19:43:55.013Z,1.38
2022-09-27T19:46:23.888Z,1.50
2022-09-27T19:48:51.381Z,1.50
2022-09-27T19:51:20.423Z,1.83
2022-09-27T19:53:47.695Z,2.50
2022-09-27T19:56:14.958Z,1.80
2022-09-27T19:58:42.609Z,1.53
2022-09-27T20:01:11.954Z,1.40
2022-09-27T20:03:41.285Z,1.42
2022-09-27T20:06:11.175Z,1.58
2022-09-27T20:08:38.469Z,1.90
2022-09-27T20:11:10.607Z,1.43
2022-09-27T20:13:37.963Z,1.30
2022-09-27T20:16:14.329Z,1.48
2022-09-27T20:18:43.571Z,1.50
2022-09-27T20:21:10.716Z,1.20
2022-09-27T20:23:38.072Z,1.40
2022-09-27T20:26:06.317Z,2.00
2022-09-27T20:28:34.010Z,1.90
2022-09-27T20:31:03.785Z,1.90
2022-09-27T20:33:49.909Z,1.55
2022-09-27T20:36:21.571Z,1.60
2022-09-27T20:38:54.491Z,1.48
2022-09-27T20:41:25.259Z,1.13
2022-09-27T20:43:54.669Z,1.27
2022-09-27T20:46:22.722Z,1.50
2022-09-27T20:49:00.551Z,2.90
2022-09-27T20:51:27.782Z,1.58
2022-09-27T20:53:55.279Z,1.80
2022-09-27T20:56:25.378Z,1.60
2022-09-27T20:58:54.363Z,1.10
2022-09-27T21:01:23.487Z,1.20
2022-09-27T21:04:01.816Z,1.10
2022-09-27T21:06:31.259Z,1.30
2022-09-27T21:08:59.983Z,1.50
2022-09-27T21:11:27.427Z,1.50
2022-09-27T21:13:54.657Z,1.60
2022-09-27T21:16:26.485Z,1.20
2022-09-27T21:18:58.515Z,1.20
2022-09-27T21:21:25.797Z,1.27
2022-09-27T21:23:55.662Z,0.85
2022-09-27T21:26:24.013Z,1.13
2022-09-27T21:28:55.511Z,1.30
2022-09-27T21:31:27.787Z,1.95
2022-09-27T21:33:58.462Z,1.25
2022-09-27T21:36:28.341Z,1.50
2022-09-27T21:38:55.970Z,1.40
2022-09-27T21:41:23.908Z,1.60
2022-09-27T21:43:51.568Z,1.65
2022-09-27T21:46:23.599Z,1.30
2022-09-27T21:48:53.042Z,1.33
2022-09-27T21:51:28.200Z,1.30
2022-09-27T21:53:57.378Z,1.08
2022-09-27T21:56:26.466Z,0.95
2022-09-27T21:58:53.521Z,1.20
2022-09-27T22:01:26.231Z,1.20
2022-09-27T22:03:55.457Z,0.90
2022-09-27T22:06:25.336Z,1.35
2022-09-27T22:08:53.045Z,0.80
2022-09-27T22:11:28.592Z,0.70
2022-09-27T22:13:56.081Z,0.80
2022-09-27T22:16:26.952Z,1.00
2022-09-27T22:18:55.214Z,1.10
2022-09-27T22:21:31.357Z,1.17
2022-09-27T22:24:07.519Z,0.80
2022-09-27T22:26:37.225Z,1.10
2022-09-27T22:29:04.894Z,1.10
2022-09-27T22:31:32.319Z,0.90
2022-09-27T22:34:01.313Z,1.10
2022-09-27T22:36:28.766Z,0.93
2022-09-27T22:38:55.831Z,0.90
2022-09-27T22:41:23.614Z,1.00
2022-09-27T22:43:51.841Z,0.95
2022-09-27T22:46:19.438Z,1.08
2022-09-27T22:48:46.555Z,1.00
2022-09-27T22:51:13.738Z,0.60
2022-09-27T22:53:40.901Z,0.83
2022-09-27T22:56:11.014Z,0.93
2022-09-27T22:58:38.193Z,0.63
2022-09-27T23:01:10.653Z,1.00
2022-09-27T23:03:37.982Z,0.75
2022-09-27T23:06:05.782Z,0.87
2022-09-27T23:08:35.391Z,0.77
2022-09-27T23:11:14.084Z,1.00
2022-09-27T23:13:42.561Z,0.55
2022-09-27T23:16:12.054Z,0.90
2022-09-27T23:18:39.593Z,1.17
2022-09-27T23:21:09.062Z,1.00
2022-09-27T23:23:38.045Z,0.80
2022-09-27T23:26:07.160Z,0.57
2022-09-27T23:28:35.154Z,0.60
2022-09-27T23:31:10.507Z,0.50
2022-09-27T23:33:39.261Z,0.68
2022-09-27T23:36:09.441Z,0.68
2022-09-27T23:38:37.831Z,0.75
2022-09-27T23:41:05.165Z,0.85
2022-09-27T23:43:32.223Z,1.00
2022-09-27T23:45:59.273Z,1.30
2022-09-27T23:48:26.327Z,1.10
2022-09-27T23:50:54.370Z,1.10
2022-09-27T23:53:21.819Z,1.10
2022-09-27T23:55:59.598Z,0.80
2022-09-27T23:58:26.608Z,1.10
